sensor_id;sensor_type;location;lat;lon;timestamp;pressure;altitude;pressure_sealevel;temperature;humidity
50123;BME280;36021;48.670;6.184;2022-08-21T00:01:58;99131.78;;;20.89;100.00
50123;BME280;36021;48.670;6.184;2022-08-21T00:04:24;99132.25;;;20.91;100.00
50123;BME280;36021;48.670;6.184;2022-08-21T00:06:50;99132.25;;;20.91;100.00
50123;BME280;36021;48.670;6.184;2022-08-21T00:09:18;99123.47;;;20.92;100.00
50123;BME280;36021;48.670;6.184;2022-08-21T00:11:44;99127.91;;;20.93;100.00
50123;BME280;36021;48.670;6.184;2022-08-21T00:14:10;99127.53;;;20.95;100.00
50123;BME280;36021;48.670;6.184;2022-08-21T00:16:37;99123.84;;;20.91;100.00
50123;BME280;36021;48.670;6.184;2022-08-21T00:19:04;99132.94;;;20.88;100.00
50123;BME280;36021;48.670;6.184;2022-08-21T00:21:32;99123.28;;;20.85;100.00
50123;BME280;36021;48.670;6.184;2022-08-21T00:23:58;99131.69;;;20.85;100.00
50123;BME280;36021;48.670;6.184;2022-08-21T00:26:24;99126.16;;;20.89;100.00
50123;BME280;36021;48.670;6.184;2022-08-21T00:28:50;99129.06;;;20.76;100.00
50123;BME280;36021;48.670;6.184;2022-08-21T00:31:16;99124.19;;;20.73;100.00
50123;BME280;36021;48.670;6.184;2022-08-21T00:33:43;99126.88;;;20.70;100.00
50123;BME280;36021;48.670;6.184;2022-08-21T00:36:12;99119.84;;;20.76;100.00
50123;BME280;36021;48.670;6.184;2022-08-21T00:38:38;99115.78;;;20.73;100.00
50123;BME280;36021;48.670;6.184;2022-08-21T00:41:07;99118.19;;;20.75;100.00
50123;BME280;36021;48.670;6.184;2022-08-21T00:43:35;99118.56;;;20.73;100.00
50123;BME280;36021;48.670;6.184;2022-08-21T00:46:02;99124.69;;;20.63;100.00
50123;BME280;36021;48.670;6.184;2022-08-21T00:48:28;99123.81;;;20.32;100.00
50123;BME280;36021;48.670;6.184;2022-08-21T00:50:55;99125.81;;;20.31;100.00
50123;BME280;36021;48.670;6.184;2022-08-21T00:53:23;99130.00;;;20.25;100.00
50123;BME280;36021;48.670;6.184;2022-08-21T00:55:49;99126.69;;;20.07;100.00
50123;BME280;36021;48.670;6.184;2022-08-21T00:58:18;99131.72;;;19.90;100.00
50123;BME280;36021;48.670;6.184;2022-08-21T01:00:47;99139.44;;;19.81;100.00
50123;BME280;36021;48.670;6.184;2022-08-21T01:03:18;99139.94;;;19.70;100.00
50123;BME280;36021;48.670;6.184;2022-08-21T01:05:44;99145.31;;;19.63;100.00
50123;BME280;36021;48.670;6.184;2022-08-21T01:08:11;99146.47;;;19.50;100.00
50123;BME280;36021;48.670;6.184;2022-08-21T01:10:38;99140.22;;;19.53;100.00
50123;BME280;36021;48.670;6.184;2022-08-21T01:13:06;99149.97;;;19.35;100.00
50123;BME280;36021;48.670;6.184;2022-08-21T01:15:37;99146.47;;;19.26;100.00
50123;BME280;36021;48.670;6.184;2022-08-21T01:18:07;99154.63;;;19.31;100.00
50123;BME280;36021;48.670;6.184;2022-08-21T01:20:35;99155.81;;;19.30;100.00
50123;BME280;36021;48.670;6.184;2022-08-21T01:23:02;99158.94;;;19.29;100.00
50123;BME280;36021;48.670;6.184;2022-08-21T01:25:29;99161.47;;;19.21;100.00
50123;BME280;36021;48.670;6.184;2022-08-21T01:27:55;99154.75;;;19.22;100.00
50123;BME280;36021;48.670;6.184;2022-08-21T01:30:25;99146.81;;;19.24;100.00
50123;BME280;36021;48.670;6.184;2022-08-21T01:32:51;99158.00;;;19.12;100.00
50123;BME280;36021;48.670;6.184;2022-08-21T01:35:19;99151.59;;;19.12;100.00
50123;BME280;36021;48.670;6.184;2022-08-21T01:37:46;99158.75;;;18.89;100.00
50123;BME280;36021;48.670;6.184;2022-08-21T01:40:15;99148.09;;;18.91;100.00
50123;BME280;36021;48.670;6.184;2022-08-21T01:42:41;99155.19;;;19.00;100.00
50123;BME280;36021;48.670;6.184;2022-08-21T01:45:07;99153.91;;;19.10;100.00
50123;BME280;36021;48.670;6.184;2022-08-21T01:47:34;99151.13;;;19.22;100.00
50123;BME280;36021;48.670;6.184;2022-08-21T01:50:00;99149.38;;;19.30;100.00
50123;BME280;36021;48.670;6.184;2022-08-21T01:52:26;99142.28;;;19.32;100.00
50123;BME280;36021;48.670;6.184;2022-08-21T01:54:52;99132.50;;;19.38;100.00
50123;BME280;36021;48.670;6.184;2022-08-21T01:57:17;99147.19;;;19.23;100.00
50123;BME280;36021;48.670;6.184;2022-08-21T01:59:43;99137.59;;;19.24;100.00
50123;BME280;36021;48.670;6.184;2022-08-21T02:02:09;99135.28;;;19.26;100.00
50123;BME280;36021;48.670;6.184;2022-08-21T02:04:35;99133.41;;;19.18;100.00
50123;BME280;36021;48.670;6.184;2022-08-21T02:07:01;99140.41;;;19.12;100.00
50123;BME280;36021;48.670;6.184;2022-08-21T02:09:27;99133.19;;;18.99;100.00
50123;BME280;36021;48.670;6.184;2022-08-21T02:11:53;99131.56;;;19.10;100.00
50123;BME280;36021;48.670;6.184;2022-08-21T02:14:19;99126.69;;;19.07;100.00
50123;BME280;36021;48.670;6.184;2022-08-21T02:16:45;99129.56;;;18.98;100.00
50123;BME280;36021;48.670;6.184;2022-08-21T02:19:13;99124.78;;;19.11;100.00
50123;BME280;36021;48.670;6.184;2022-08-21T02:21:40;99125.41;;;19.16;100.00
50123;BME280;36021;48.670;6.184;2022-08-21T02:24:06;99121.09;;;19.19;100.00
50123;BME280;36021;48.670;6.184;2022-08-21T02:26:33;99126.91;;;19.14;100.00
50123;BME280;36021;48.670;6.184;2022-08-21T02:28:59;99122.94;;;19.03;100.00
50123;BME280;36021;48.670;6.184;2022-08-21T02:31:25;99122.69;;;18.84;100.00
50123;BME280;36021;48.670;6.184;2022-08-21T02:33:53;99119.75;;;18.68;100.00
50123;BME280;36021;48.670;6.184;2022-08-21T02:36:19;99126.59;;;18.58;100.00
50123;BME280;36021;48.670;6.184;2022-08-21T02:38:44;99120.75;;;18.51;100.00
50123;BME280;36021;48.670;6.184;2022-08-21T02:41:16;99120.75;;;18.51;100.00
50123;BME280;36021;48.670;6.184;2022-08-21T02:43:42;99129.72;;;18.57;100.00
50123;BME280;36021;48.670;6.184;2022-08-21T02:46:09;99124.00;;;18.53;100.00
50123;BME280;36021;48.670;6.184;2022-08-21T02:48:36;99122.69;;;18.39;100.00
50123;BME280;36021;48.670;6.184;2022-08-21T02:51:05;99122.13;;;18.45;100.00
50123;BME280;36021;48.670;6.184;2022-08-21T02:53:32;99118.84;;;18.43;100.00
50123;BME280;36021;48.670;6.184;2022-08-21T02:56:01;99120.00;;;18.42;100.00
50123;BME280;36021;48.670;6.184;2022-08-21T02:58:33;99117.75;;;18.36;100.00
50123;BME280;36021;48.670;6.184;2022-08-21T03:00:59;99112.28;;;18.27;100.00
50123;BME280;36021;48.670;6.184;2022-08-21T03:03:25;99115.22;;;18.43;100.00
50123;BME280;36021;48.670;6.184;2022-08-21T03:05:52;99110.75;;;18.50;100.00
50123;BME280;36021;48.670;6.184;2022-08-21T03:08:19;99108.34;;;18.61;100.00
50123;BME280;36021;48.670;6.184;2022-08-21T03:10:47;99112.88;;;18.65;100.00
50123;BME280;36021;48.670;6.184;2022-08-21T03:13:14;99114.88;;;18.65;100.00
50123;BME280;36021;48.670;6.184;2022-08-21T03:15:41;99104.94;;;18.55;100.00
50123;BME280;36021;48.670;6.184;2022-08-21T03:18:08;99103.22;;;18.30;100.00
50123;BME280;36021;48.670;6.184;2022-08-21T03:20:36;99104.13;;;18.22;100.00
50123;BME280;36021;48.670;6.184;2022-08-21T03:23:04;99101.69;;;18.33;100.00
50123;BME280;36021;48.670;6.184;2022-08-21T03:25:33;99098.44;;;18.31;100.00
50123;BME280;36021;48.670;6.184;2022-08-21T03:27:59;99094.59;;;18.23;100.00
50123;BME280;36021;48.670;6.184;2022-08-21T03:30:25;99101.28;;;18.10;100.00
50123;BME280;36021;48.670;6.184;2022-08-21T03:32:51;99102.31;;;18.05;100.00
50123;BME280;36021;48.670;6.184;2022-08-21T03:35:18;99100.97;;;17.91;100.00
50123;BME280;36021;48.670;6.184;2022-08-21T03:37:44;99107.22;;;17.88;100.00
50123;BME280;36021;48.670;6.184;2022-08-21T03:40:11;99100.97;;;17.91;100.00
50123;BME280;36021;48.670;6.184;2022-08-21T03:42:38;99105.84;;;17.94;100.00
50123;BME280;36021;48.670;6.184;2022-08-21T03:45:05;99097.44;;;18.02;100.00
50123;BME280;36021;48.670;6.184;2022-08-21T03:47:31;99099.84;;;18.04;100.00
50123;BME280;36021;48.670;6.184;2022-08-21T03:49:57;99100.41;;;17.97;100.00
50123;BME280;36021;48.670;6.184;2022-08-21T03:52:22;99099.34;;;17.90;100.00
50123;BME280;36021;48.670;6.184;2022-08-21T03:54:48;99101.22;;;17.98;100.00
50123;BME280;36021;48.670;6.184;2022-08-21T03:57:15;99100.50;;;17.89;100.00
50123;BME280;36021;48.670;6.184;2022-08-21T03:59:41;99100.09;;;17.78;100.00
50123;BME280;36021;48.670;6.184;2022-08-21T04:02:10;99104.09;;;17.68;100.00
50123;BME280;36021;48.670;6.184;2022-08-21T04:04:36;99107.88;;;17.64;100.00
50123;BME280;36021;48.670;6.184;2022-08-21T04:07:03;99112.13;;;17.70;100.00
50123;BME280;36021;48.670;6.184;2022-08-21T04:09:29;99117.91;;;17.86;100.00
50123;BME280;36021;48.670;6.184;2022-08-21T04:11:56;99111.44;;;17.94;100.00
50123;BME280;36021;48.670;6.184;2022-08-21T04:14:22;99110.06;;;18.00;100.00
50123;BME280;36021;48.670;6.184;2022-08-21T04:16:48;99112.38;;;17.98;100.00
50123;BME280;36021;48.670;6.184;2022-08-21T04:19:14;99111.00;;;18.04;100.00
50123;BME280;36021;48.670;6.184;2022-08-21T04:21:40;99115.81;;;17.83;100.00
50123;BME280;36021;48.670;6.184;2022-08-21T04:24:08;99121.25;;;17.79;100.00
50123;BME280;36021;48.670;6.184;2022-08-21T04:26:36;99119.19;;;17.67;100.00
50123;BME280;36021;48.670;6.184;2022-08-21T04:29:03;99127.75;;;17.62;100.00
50123;BME280;36021;48.670;6.184;2022-08-21T04:31:32;99137.63;;;17.51;100.00
50123;BME280;36021;48.670;6.184;2022-08-21T04:33:59;99132.13;;;17.72;100.00
50123;BME280;36021;48.670;6.184;2022-08-21T04:36:25;99128.94;;;17.82;100.00
50123;BME280;36021;48.670;6.184;2022-08-21T04:38:51;99128.38;;;17.89;100.00
50123;BME280;36021;48.670;6.184;2022-08-21T04:41:17;99130.50;;;17.92;100.00
50123;BME280;36021;48.670;6.184;2022-08-21T04:43:43;99135.94;;;17.88;100.00
50123;BME280;36021;48.670;6.184;2022-08-21T04:46:08;99134.53;;;17.74;100.00
50123;BME280;36021;48.670;6.184;2022-08-21T04:48:34;99135.97;;;17.59;100.00
50123;BME280;36021;48.670;6.184;2022-08-21T04:51:44;99141.88;;;17.57;100.00
50123;BME280;36021;48.670;6.184;2022-08-21T04:54:08;99146.31;;;17.58;100.00
50123;BME280;36021;48.670;6.184;2022-08-21T04:56:39;99145.66;;;17.53;100.00
50123;BME280;36021;48.670;6.184;2022-08-21T04:59:15;99145.53;;;17.49;100.00
50123;BME280;36021;48.670;6.184;2022-08-21T05:01:44;99145.84;;;17.56;100.00
50123;BME280;36021;48.670;6.184;2022-08-21T05:04:15;99134.97;;;17.63;100.00
50123;BME280;36021;48.670;6.184;2022-08-21T05:06:44;99152.63;;;17.67;100.00
50123;BME280;36021;48.670;6.184;2022-08-21T05:09:14;99150.41;;;17.52;100.00
50123;BME280;36021;48.670;6.184;2022-08-21T05:11:41;99151.78;;;17.46;100.00
50123;BME280;36021;48.670;6.184;2022-08-21T05:14:08;99152.84;;;17.33;100.00
50123;BME280;36021;48.670;6.184;2022-08-21T05:16:34;99148.97;;;17.46;100.00
50123;BME280;36021;48.670;6.184;2022-08-21T05:19:00;99146.88;;;17.43;100.00
50123;BME280;36021;48.670;6.184;2022-08-21T05:21:26;99145.03;;;17.47;100.00
50123;BME280;36021;48.670;6.184;2022-08-21T05:23:52;99146.72;;;17.40;100.00
50123;BME280;36021;48.670;6.184;2022-08-21T05:26:18;99153.28;;;17.44;100.00
50123;BME280;36021;48.670;6.184;2022-08-21T05:28:44;99143.41;;;17.46;100.00
50123;BME280;36021;48.670;6.184;2022-08-21T05:31:10;99145.09;;;17.39;100.00
50123;BME280;36021;48.670;6.184;2022-08-21T05:33:37;99145.44;;;17.37;100.00
50123;BME280;36021;48.670;6.184;2022-08-21T05:36:03;99142.66;;;17.37;100.00
50123;BME280;36021;48.670;6.184;2022-08-21T05:38:29;99150.47;;;17.44;100.00
50123;BME280;36021;48.670;6.184;2022-08-21T05:40:54;99145.03;;;17.47;100.00
50123;BME280;36021;48.670;6.184;2022-08-21T05:43:20;99151.09;;;17.49;100.00
50123;BME280;36021;48.670;6.184;2022-08-21T05:45:46;99156.63;;;17.58;100.00
50123;BME280;36021;48.670;6.184;2022-08-21T05:48:16;99161.00;;;17.67;100.00
50123;BME280;36021;48.670;6.184;2022-08-21T05:50:44;99150.13;;;17.75;100.00
50123;BME280;36021;48.670;6.184;2022-08-21T05:53:12;99144.38;;;17.80;100.00
50123;BME280;36021;48.670;6.184;2022-08-21T05:55:38;99139.25;;;17.82;100.00
50123;BME280;36021;48.670;6.184;2022-08-21T05:58:04;99144.22;;;17.97;100.00
50123;BME280;36021;48.670;6.184;2022-08-21T06:00:30;99139.94;;;17.99;100.00
50123;BME280;36021;48.670;6.184;2022-08-21T06:02:56;99141.56;;;18.00;100.00
50123;BME280;36021;48.670;6.184;2022-08-21T06:05:21;99143.66;;;18.03;100.00
50123;BME280;36021;48.670;6.184;2022-08-21T06:07:47;99144.47;;;18.04;100.00
50123;BME280;36021;48.670;6.184;2022-08-21T06:10:13;99142.19;;;18.06;100.00
50123;BME280;36021;48.670;6.184;2022-08-21T06:12:38;99145.31;;;18.04;100.00
50123;BME280;36021;48.670;6.184;2022-08-21T06:15:04;99143.75;;;18.15;100.00
50123;BME280;36021;48.670;6.184;2022-08-21T06:17:30;99145.28;;;18.25;100.00
50123;BME280;36021;48.670;6.184;2022-08-21T06:19:56;99146.34;;;18.33;100.00
50123;BME280;36021;48.670;6.184;2022-08-21T06:22:22;99139.06;;;18.40;100.00
50123;BME280;36021;48.670;6.184;2022-08-21T06:24:48;99136.16;;;18.49;100.00
50123;BME280;36021;48.670;6.184;2022-08-21T06:27:15;99140.63;;;18.50;100.00
50123;BME280;36021;48.670;6.184;2022-08-21T06:29:43;99135.06;;;18.50;100.00
50123;BME280;36021;48.670;6.184;2022-08-21T06:32:13;99144.72;;;18.52;100.00
50123;BME280;36021;48.670;6.184;2022-08-21T06:34:40;99136.84;;;18.66;100.00
50123;BME280;36021;48.670;6.184;2022-08-21T06:37:07;99127.53;;;18.62;100.00
50123;BME280;36021;48.670;6.184;2022-08-21T06:39:33;99138.22;;;18.60;100.00
50123;BME280;36021;48.670;6.184;2022-08-21T06:41:59;99127.66;;;18.66;100.00
50123;BME280;36021;48.670;6.184;2022-08-21T06:44:28;99138.00;;;18.65;100.00
50123;BME280;36021;48.670;6.184;2022-08-21T06:46:54;99133.38;;;18.69;100.00
50123;BME280;36021;48.670;6.184;2022-08-21T06:49:19;99130.13;;;18.47;100.00
50123;BME280;36021;48.670;6.184;2022-08-21T06:51:45;99129.00;;;18.27;100.00
50123;BME280;36021;48.670;6.184;2022-08-21T06:54:11;99131.38;;;18.37;100.00
50123;BME280;36021;48.670;6.184;2022-08-21T06:56:37;99132.53;;;18.57;100.00
50123;BME280;36021;48.670;6.184;2022-08-21T06:59:04;99128.03;;;18.77;100.00
50123;BME280;36021;48.670;6.184;2022-08-21T07:01:31;99123.84;;;18.95;100.00
50123;BME280;36021;48.670;6.184;2022-08-21T07:03:57;99123.19;;;19.10;100.00
50123;BME280;36021;48.670;6.184;2022-08-21T07:06:23;99126.44;;;19.12;100.00
50123;BME280;36021;48.670;6.184;2022-08-21T07:08:48;99119.47;;;19.30;100.00
50123;BME280;36021;48.670;6.184;2022-08-21T07:11:17;99114.06;;;19.37;100.00
50123;BME280;36021;48.670;6.184;2022-08-21T07:13:44;99122.13;;;19.51;100.00
50123;BME280;36021;48.670;6.184;2022-08-21T07:16:09;99114.31;;;19.68;100.00
50123;BME280;36021;48.670;6.184;2022-08-21T07:18:35;99102.03;;;19.85;100.00
50123;BME280;36021;48.670;6.184;2022-08-21T07:21:03;99119.09;;;19.68;100.00
50123;BME280;36021;48.670;6.184;2022-08-21T07:23:32;99122.44;;;19.86;100.00
50123;BME280;36021;48.670;6.184;2022-08-21T07:25:59;99112.66;;;19.80;100.00
50123;BME280;36021;48.670;6.184;2022-08-21T07:28:27;99107.75;;;19.89;100.00
50123;BME280;36021;48.670;6.184;2022-08-21T07:30:55;99107.44;;;20.06;100.00
50123;BME280;36021;48.670;6.184;2022-08-21T07:33:21;99097.44;;;20.05;100.00
50123;BME280;36021;48.670;6.184;2022-08-21T07:35:49;99102.22;;;20.32;100.00
50123;BME280;36021;48.670;6.184;2022-08-21T07:38:15;99106.34;;;20.50;100.00
50123;BME280;36021;48.670;6.184;2022-08-21T07:40:41;99107.25;;;20.54;100.00
50123;BME280;36021;48.670;6.184;2022-08-21T07:43:06;99101.28;;;20.71;100.00
50123;BME280;36021;48.670;6.184;2022-08-21T07:45:32;99093.91;;;20.63;100.00
50123;BME280;36021;48.670;6.184;2022-08-21T07:47:58;99095.88;;;20.78;100.00
50123;BME280;36021;48.670;6.184;2022-08-21T07:50:24;99091.47;;;21.09;100.00
50123;BME280;36021;48.670;6.184;2022-08-21T07:52:51;99079.59;;;21.31;100.00
50123;BME280;36021;48.670;6.184;2022-08-21T07:55:19;99076.84;;;21.50;100.00
50123;BME280;36021;48.670;6.184;2022-08-21T07:57:45;99086.03;;;21.66;100.00
50123;BME280;36021;48.670;6.184;2022-08-21T08:00:15;99089.59;;;21.82;100.00
50123;BME280;36021;48.670;6.184;2022-08-21T08:02:45;99093.25;;;22.02;100.00
50123;BME280;36021;48.670;6.184;2022-08-21T08:05:12;99093.13;;;22.14;100.00
50123;BME280;36021;48.670;6.184;2022-08-21T08:07:38;99081.22;;;22.21;100.00
50123;BME280;36021;48.670;6.184;2022-08-21T08:10:05;99082.56;;;22.27;100.00
50123;BME280;36021;48.670;6.184;2022-08-21T08:12:33;99075.88;;;22.35;100.00
50123;BME280;36021;48.670;6.184;2022-08-21T08:15:00;99071.84;;;22.55;100.00
50123;BME280;36021;48.670;6.184;2022-08-21T08:17:26;99080.16;;;22.67;100.00
50123;BME280;36021;48.670;6.184;2022-08-21T08:19:53;99077.97;;;22.80;100.00
50123;BME280;36021;48.670;6.184;2022-08-21T08:22:21;99078.25;;;22.98;100.00
50123;BME280;36021;48.670;6.184;2022-08-21T08:24:50;99075.69;;;23.12;100.00
50123;BME280;36021;48.670;6.184;2022-08-21T08:27:18;99075.03;;;22.96;100.00
50123;BME280;36021;48.670;6.184;2022-08-21T08:29:45;99081.44;;;23.19;100.00
50123;BME280;36021;48.670;6.184;2022-08-21T08:32:11;99075.19;;;23.29;100.00
50123;BME280;36021;48.670;6.184;2022-08-21T08:34:39;99081.03;;;23.43;100.00
50123;BME280;36021;48.670;6.184;2022-08-21T08:37:07;99080.06;;;23.58;100.00
50123;BME280;36021;48.670;6.184;2022-08-21T08:39:33;99081.13;;;23.76;100.00
50123;BME280;36021;48.670;6.184;2022-08-21T08:42:12;99072.25;;;23.74;100.00
50123;BME280;36021;48.670;6.184;2022-08-21T08:44:41;99070.84;;;23.88;100.00
50123;BME280;36021;48.670;6.184;2022-08-21T08:47:09;99072.00;;;23.86;100.00
50123;BME280;36021;48.670;6.184;2022-08-21T08:50:00;99070.25;;;24.05;100.00
50123;BME280;36021;48.670;6.184;2022-08-21T08:52:34;99063.94;;;24.15;100.00
50123;BME280;36021;48.670;6.184;2022-08-21T08:55:12;99064.13;;;24.29;100.00
50123;BME280;36021;48.670;6.184;2022-08-21T08:57:44;99052.25;;;24.46;100.00
50123;BME280;36021;48.670;6.184;2022-08-21T09:00:13;99064.50;;;24.64;100.00
50123;BME280;36021;48.670;6.184;2022-08-21T09:02:41;99062.97;;;24.70;100.00
50123;BME280;36021;48.670;6.184;2022-08-21T09:05:20;99054.56;;;24.77;100.00
50123;BME280;36021;48.670;6.184;2022-08-21T09:08:14;99053.59;;;25.00;100.00
50123;BME280;36021;48.670;6.184;2022-08-21T09:13:41;99054.31;;;24.90;100.00
50123;BME280;36021;48.670;6.184;2022-08-21T09:16:42;99063.63;;;24.57;100.00
50123;BME280;36021;48.670;6.184;2022-08-21T09:25:18;99058.50;;;25.10;100.00
50123;BME280;36021;48.670;6.184;2022-08-21T09:27:46;99056.84;;;25.02;100.00
50123;BME280;36021;48.670;6.184;2022-08-21T09:30:12;99054.63;;;25.28;100.00
50123;BME280;36021;48.670;6.184;2022-08-21T09:32:39;99046.75;;;25.52;100.00
50123;BME280;36021;48.670;6.184;2022-08-21T09:35:13;99041.59;;;25.64;100.00
50123;BME280;36021;48.670;6.184;2022-08-21T09:37:56;99045.69;;;25.77;100.00
50123;BME280;36021;48.670;6.184;2022-08-21T09:43:21;99043.28;;;25.79;100.00
50123;BME280;36021;48.670;6.184;2022-08-21T09:45:49;99046.59;;;25.99;100.00
50123;BME280;36021;48.670;6.184;2022-08-21T09:48:26;99043.84;;;26.13;100.00
50123;BME280;36021;48.670;6.184;2022-08-21T09:50:52;99047.00;;;26.05;100.00
50123;BME280;36021;48.670;6.184;2022-08-21T09:53:30;99044.53;;;25.89;100.00
50123;BME280;36021;48.670;6.184;2022-08-21T09:55:59;99036.22;;;26.24;100.00
50123;BME280;36021;48.670;6.184;2022-08-21T09:58:47;99038.69;;;26.51;100.00
50123;BME280;36021;48.670;6.184;2022-08-21T10:01:19;99027.50;;;26.82;100.00
50123;BME280;36021;48.670;6.184;2022-08-21T10:03:46;99030.22;;;26.54;100.00
50123;BME280;36021;48.670;6.184;2022-08-21T10:06:27;99030.28;;;26.72;100.00
50123;BME280;36021;48.670;6.184;2022-08-21T10:11:31;99024.94;;;26.35;100.00
50123;BME280;36021;48.670;6.184;2022-08-21T10:14:16;99024.94;;;26.31;100.00
50123;BME280;36021;48.670;6.184;2022-08-21T10:17:07;99023.38;;;26.55;100.00
50123;BME280;36021;48.670;6.184;2022-08-21T10:19:39;99021.00;;;27.00;100.00
50123;BME280;36021;48.670;6.184;2022-08-21T10:22:15;99010.88;;;26.56;100.00
50123;BME280;36021;48.670;6.184;2022-08-21T10:27:29;99016.97;;;27.01;100.00
50123;BME280;36021;48.670;6.184;2022-08-21T10:30:19;99012.47;;;26.54;100.00
50123;BME280;36021;48.670;6.184;2022-08-21T10:38:42;99007.69;;;26.86;100.00
50123;BME280;36021;48.670;6.184;2022-08-21T10:49:40;98998.72;;;27.37;100.00
50123;BME280;36021;48.670;6.184;2022-08-21T10:55:08;98989.44;;;27.33;100.00
50123;BME280;36021;48.670;6.184;2022-08-21T10:57:47;98986.59;;;27.40;100.00
50123;BME280;36021;48.670;6.184;2022-08-21T11:00:18;98984.97;;;27.42;100.00
50123;BME280;36021;48.670;6.184;2022-08-21T11:05:25;98991.50;;;27.22;100.00
50123;BME280;36021;48.670;6.184;2022-08-21T11:10:40;98974.44;;;27.39;100.00
50123;BME280;36021;48.670;6.184;2022-08-21T11:13:19;98977.66;;;27.59;100.00
50123;BME280;36021;48.670;6.184;2022-08-21T11:24:15;98967.06;;;27.84;100.00
50123;BME280;36021;48.670;6.184;2022-08-21T11:29:21;98962.09;;;28.03;100.00
50123;BME280;36021;48.670;6.184;2022-08-21T11:40:40;98963.75;;;27.97;100.00
50123;BME280;36021;48.670;6.184;2022-08-21T11:45:53;98965.50;;;29.01;100.00
50123;BME280;36021;48.670;6.184;2022-08-21T11:51:16;98963.00;;;29.06;100.00
50123;BME280;36021;48.670;6.184;2022-08-21T11:53:51;98959.28;;;29.54;100.00
50123;BME280;36021;48.670;6.184;2022-08-21T11:58:53;98954.41;;;30.18;100.00
50123;BME280;36021;48.670;6.184;2022-08-21T12:01:23;98951.09;;;30.77;100.00
50123;BME280;36021;48.670;6.184;2022-08-21T12:04:10;98955.22;;;30.19;100.00
50123;BME280;36021;48.670;6.184;2022-08-21T12:06:41;98958.72;;;31.30;100.00
50123;BME280;36021;48.670;6.184;2022-08-21T12:12:22;98937.84;;;33.89;99.59
50123;BME280;36021;48.670;6.184;2022-08-21T12:14:50;98936.81;;;36.13;91.81
50123;BME280;36021;48.670;6.184;2022-08-21T12:17:23;98939.69;;;36.13;82.93
50123;BME280;36021;48.670;6.184;2022-08-21T12:20:00;98943.16;;;38.60;73.51
50123;BME280;36021;48.670;6.184;2022-08-21T12:22:38;98938.41;;;40.93;70.66
50123;BME280;36021;48.670;6.184;2022-08-21T12:25:11;98941.28;;;40.93;65.58
50123;BME280;36021;48.670;6.184;2022-08-21T12:27:52;98937.50;;;41.01;64.12
50123;BME280;36021;48.670;6.184;2022-08-21T12:33:04;98936.19;;;39.56;68.62
50123;BME280;36021;48.670;6.184;2022-08-21T12:35:40;98928.81;;;41.82;61.42
50123;BME280;36021;48.670;6.184;2022-08-21T12:38:26;98928.19;;;40.77;61.58
50123;BME280;36021;48.670;6.184;2022-08-21T12:40:56;98928.16;;;41.73;61.41
50123;BME280;36021;48.670;6.184;2022-08-21T12:43:29;98921.66;;;42.03;58.42
50123;BME280;36021;48.670;6.184;2022-08-21T12:45:56;98924.03;;;41.79;66.14
50123;BME280;36021;48.670;6.184;2022-08-21T12:48:33;98922.19;;;42.59;54.67
50123;BME280;36021;48.670;6.184;2022-08-21T12:51:13;98921.97;;;42.63;55.54
50123;BME280;36021;48.670;6.184;2022-08-21T12:53:56;98921.72;;;45.51;52.91
50123;BME280;36021;48.670;6.184;2022-08-21T12:56:28;98920.78;;;45.09;47.24
50123;BME280;36021;48.670;6.184;2022-08-21T12:58:57;98914.56;;;42.04;53.31
50123;BME280;36021;48.670;6.184;2022-08-21T13:01:39;98905.50;;;43.33;50.09
50123;BME280;36021;48.670;6.184;2022-08-21T13:04:12;98920.06;;;44.81;51.92
50123;BME280;36021;48.670;6.184;2022-08-21T13:06:43;98906.28;;;46.49;48.83
50123;BME280;36021;48.670;6.184;2022-08-21T13:09:12;98905.69;;;45.22;45.23
50123;BME280;36021;48.670;6.184;2022-08-21T13:11:41;98902.63;;;44.65;49.84
50123;BME280;36021;48.670;6.184;2022-08-21T13:14:17;98908.97;;;45.65;46.27
50123;BME280;36021;48.670;6.184;2022-08-21T13:16:46;98893.28;;;42.70;47.56
50123;BME280;36021;48.670;6.184;2022-08-21T13:19:17;98890.06;;;43.64;49.05
50123;BME280;36021;48.670;6.184;2022-08-21T13:21:44;98889.41;;;44.30;53.25
50123;BME280;36021;48.670;6.184;2022-08-21T13:24:32;98886.44;;;43.16;48.22
50123;BME280;36021;48.670;6.184;2022-08-21T13:26:58;98881.81;;;43.40;48.57
50123;BME280;36021;48.670;6.184;2022-08-21T13:29:32;98885.66;;;43.96;50.09
50123;BME280;36021;48.670;6.184;2022-08-21T13:32:02;98881.69;;;43.88;49.81
50123;BME280;36021;48.670;6.184;2022-08-21T13:34:33;98876.53;;;43.44;50.03
50123;BME280;36021;48.670;6.184;2022-08-21T13:37:03;98876.41;;;43.92;52.52
50123;BME280;36021;48.670;6.184;2022-08-21T13:39:31;98877.94;;;42.64;52.04
50123;BME280;36021;48.670;6.184;2022-08-21T13:42:00;98874.91;;;40.84;57.83
50123;BME280;36021;48.670;6.184;2022-08-21T13:44:36;98870.41;;;41.89;55.29
50123;BME280;36021;48.670;6.184;2022-08-21T13:47:06;98863.34;;;42.95;56.67
50123;BME280;36021;48.670;6.184;2022-08-21T13:49:33;98871.66;;;41.57;55.60
50123;BME280;36021;48.670;6.184;2022-08-21T13:51:59;98867.09;;;39.52;57.83
50123;BME280;36021;48.670;6.184;2022-08-21T13:54:32;98868.16;;;40.08;57.23
50123;BME280;36021;48.670;6.184;2022-08-21T13:56:59;98865.31;;;42.04;54.65
50123;BME280;36021;48.670;6.184;2022-08-21T13:59:35;98862.78;;;42.91;50.42
50123;BME280;36021;48.670;6.184;2022-08-21T14:04:38;98874.31;;;44.65;44.64
50123;BME280;36021;48.670;6.184;2022-08-21T14:07:16;98867.81;;;45.80;43.79
50123;BME280;36021;48.670;6.184;2022-08-21T14:09:44;98860.34;;;47.28;44.41
50123;BME280;36021;48.670;6.184;2022-08-21T14:12:15;98849.56;;;47.60;41.32
50123;BME280;36021;48.670;6.184;2022-08-21T14:14:41;98844.16;;;46.24;39.41
50123;BME280;36021;48.670;6.184;2022-08-21T14:17:12;98850.25;;;44.03;44.44
50123;BME280;36021;48.670;6.184;2022-08-21T14:19:42;98857.06;;;46.64;47.63